sensor_id;sensor_type;location;lat;lon;timestamp;temperature;humidity
816;DHT22;25928;51.062;13.752;2022-08-24T00:01:11;21.50;1.00
816;DHT22;25928;51.062;13.752;2022-08-24T00:03:38;21.50;1.00
816;DHT22;25928;51.062;13.752;2022-08-24T00:06:10;21.50;1.00
816;DHT22;25928;51.062;13.752;2022-08-24T00:08:37;21.50;1.00
816;DHT22;25928;51.062;13.752;2022-08-24T00:11:06;21.50;1.00
816;DHT22;25928;51.062;13.752;2022-08-24T00:13:32;21.50;1.00
816;DHT22;25928;51.062;13.752;2022-08-24T00:15:58;21.40;1.00
816;DHT22;25928;51.062;13.752;2022-08-24T00:18:24;21.30;1.00
816;DHT22;25928;51.062;13.752;2022-08-24T00:20:50;21.30;1.00
816;DHT22;25928;51.062;13.752;2022-08-24T00:23:16;21.30;1.00
816;DHT22;25928;51.062;13.752;2022-08-24T00:25:42;21.30;1.00
816;DHT22;25928;51.062;13.752;2022-08-24T00:28:08;21.40;1.00
816;DHT22;25928;51.062;13.752;2022-08-24T00:33:00;21.40;1.00
816;DHT22;25928;51.062;13.752;2022-08-24T00:35:26;21.40;1.00
816;DHT22;25928;51.062;13.752;2022-08-24T00:37:53;21.40;1.00
816;DHT22;25928;51.062;13.752;2022-08-24T00:40:31;21.40;1.00
816;DHT22;25928;51.062;13.752;2022-08-24T00:43:02;21.40;1.00
816;DHT22;25928;51.062;13.752;2022-08-24T00:45:49;21.40;1.00
816;DHT22;25928;51.062;13.752;2022-08-24T00:48:21;21.40;1.00
816;DHT22;25928;51.062;13.752;2022-08-24T00:50:53;21.40;1.00
816;DHT22;25928;51.062;13.752;2022-08-24T00:53:32;21.40;1.00
816;DHT22;25928;51.062;13.752;2022-08-24T00:56:02;21.40;1.00
816;DHT22;25928;51.062;13.752;2022-08-24T00:58:55;21.40;1.00
816;DHT22;25928;51.062;13.752;2022-08-24T01:01:22;21.50;1.00
816;DHT22;25928;51.062;13.752;2022-08-24T01:03:48;21.50;1.00
816;DHT22;25928;51.062;13.752;2022-08-24T01:06:14;21.40;1.00
816;DHT22;25928;51.062;13.752;2022-08-24T01:08:40;21.40;1.00
816;DHT22;25928;51.062;13.752;2022-08-24T01:11:12;21.40;1.00
816;DHT22;25928;51.062;13.752;2022-08-24T01:13:44;21.30;1.00
816;DHT22;25928;51.062;13.752;2022-08-24T01:16:12;21.40;1.00
816;DHT22;25928;51.062;13.752;2022-08-24T01:18:39;21.40;1.00
816;DHT22;25928;51.062;13.752;2022-08-24T01:23:55;21.40;1.00
816;DHT22;25928;51.062;13.752;2022-08-24T01:26:38;21.50;1.00
816;DHT22;25928;51.062;13.752;2022-08-24T01:29:28;21.50;1.00
816;DHT22;25928;51.062;13.752;2022-08-24T01:31:57;21.40;1.00
816;DHT22;25928;51.062;13.752;2022-08-24T01:34:22;21.40;1.00
816;DHT22;25928;51.062;13.752;2022-08-24T01:36:55;21.40;1.00
816;DHT22;25928;51.062;13.752;2022-08-24T01:39:29;21.40;1.00
816;DHT22;25928;51.062;13.752;2022-08-24T01:41:56;21.50;1.00
816;DHT22;25928;51.062;13.752;2022-08-24T01:44:23;21.40;1.00
816;DHT22;25928;51.062;13.752;2022-08-24T01:46:51;21.30;1.00
816;DHT22;25928;51.062;13.752;2022-08-24T01:49:19;21.30;1.00
816;DHT22;25928;51.062;13.752;2022-08-24T01:51:45;21.20;1.00
816;DHT22;25928;51.062;13.752;2022-08-24T01:54:12;21.20;1.00
816;DHT22;25928;51.062;13.752;2022-08-24T01:56:38;21.30;1.00
816;DHT22;25928;51.062;13.752;2022-08-24T01:59:04;21.30;1.00
816;DHT22;25928;51.062;13.752;2022-08-24T02:01:34;21.30;1.00
816;DHT22;25928;51.062;13.752;2022-08-24T02:04:03;21.20;1.00
816;DHT22;25928;51.062;13.752;2022-08-24T02:06:28;21.10;1.00
816;DHT22;25928;51.062;13.752;2022-08-24T02:08:54;21.10;1.00
816;DHT22;25928;51.062;13.752;2022-08-24T02:11:20;21.10;1.00
816;DHT22;25928;51.062;13.752;2022-08-24T02:13:46;21.00;1.00
816;DHT22;25928;51.062;13.752;2022-08-24T02:16:12;21.10;1.00
816;DHT22;25928;51.062;13.752;2022-08-24T02:18:38;21.10;1.00
816;DHT22;25928;51.062;13.752;2022-08-24T02:21:08;21.10;1.00
816;DHT22;25928;51.062;13.752;2022-08-24T02:23:35;21.10;1.00
816;DHT22;25928;51.062;13.752;2022-08-24T02:26:09;21.10;1.00
816;DHT22;25928;51.062;13.752;2022-08-24T02:28:35;21.00;1.00
816;DHT22;25928;51.062;13.752;2022-08-24T02:31:06;21.10;1.00
816;DHT22;25928;51.062;13.752;2022-08-24T02:33:36;21.10;1.00
816;DHT22;25928;51.062;13.752;2022-08-24T02:36:07;21.00;1.00
816;DHT22;25928;51.062;13.752;2022-08-24T02:38:33;20.90;1.00
816;DHT22;25928;51.062;13.752;2022-08-24T02:40:59;20.80;1.00
816;DHT22;25928;51.062;13.752;2022-08-24T02:43:24;20.80;1.00
816;DHT22;25928;51.062;13.752;2022-08-24T02:45:51;20.70;1.00
816;DHT22;25928;51.062;13.752;2022-08-24T02:48:17;20.60;1.00
816;DHT22;25928;51.062;13.752;2022-08-24T02:50:46;20.50;1.00
816;DHT22;25928;51.062;13.752;2022-08-24T02:53:14;20.40;1.00
816;DHT22;25928;51.062;13.752;2022-08-24T02:55:42;20.40;1.00
816;DHT22;25928;51.062;13.752;2022-08-24T02:58:10;20.40;1.00
816;DHT22;25928;51.062;13.752;2022-08-24T03:00:37;20.30;1.00
816;DHT22;25928;51.062;13.752;2022-08-24T03:03:04;20.30;1.00
816;DHT22;25928;51.062;13.752;2022-08-24T03:05:31;20.20;1.00
816;DHT22;25928;51.062;13.752;2022-08-24T03:07:56;20.30;1.00
816;DHT22;25928;51.062;13.752;2022-08-24T03:10:22;20.20;1.00
816;DHT22;25928;51.062;13.752;2022-08-24T03:12:49;20.10;1.00
816;DHT22;25928;51.062;13.752;2022-08-24T03:15:15;20.00;1.00
816;DHT22;25928;51.062;13.752;2022-08-24T03:17:41;20.00;1.00
816;DHT22;25928;51.062;13.752;2022-08-24T03:20:11;20.00;1.00
816;DHT22;25928;51.062;13.752;2022-08-24T03:22:38;20.00;1.00
816;DHT22;25928;51.062;13.752;2022-08-24T03:25:05;20.10;1.00
816;DHT22;25928;51.062;13.752;2022-08-24T03:27:31;20.00;1.00
816;DHT22;25928;51.062;13.752;2022-08-24T03:29:56;20.00;1.00
816;DHT22;25928;51.062;13.752;2022-08-24T03:32:22;20.00;1.00
816;DHT22;25928;51.062;13.752;2022-08-24T03:34:48;20.00;1.00
816;DHT22;25928;51.062;13.752;2022-08-24T03:37:14;20.00;1.00
816;DHT22;25928;51.062;13.752;2022-08-24T03:39:41;20.00;1.00
816;DHT22;25928;51.062;13.752;2022-08-24T03:42:07;20.00;1.00
816;DHT22;25928;51.062;13.752;2022-08-24T03:44:33;20.00;1.00
816;DHT22;25928;51.062;13.752;2022-08-24T03:46:58;20.10;1.00
816;DHT22;25928;51.062;13.752;2022-08-24T03:49:24;20.10;1.00
816;DHT22;25928;51.062;13.752;2022-08-24T03:51:50;20.10;1.00
816;DHT22;25928;51.062;13.752;2022-08-24T03:54:16;20.10;1.00
816;DHT22;25928;51.062;13.752;2022-08-24T03:56:42;20.10;1.00
816;DHT22;25928;51.062;13.752;2022-08-24T03:59:08;20.10;1.00
816;DHT22;25928;51.062;13.752;2022-08-24T04:01:35;20.20;1.00
816;DHT22;25928;51.062;13.752;2022-08-24T04:04:01;20.20;1.00
816;DHT22;25928;51.062;13.752;2022-08-24T04:06:27;20.20;1.00
816;DHT22;25928;51.062;13.752;2022-08-24T04:08:53;20.10;1.00
816;DHT22;25928;51.062;13.752;2022-08-24T04:11:22;20.30;1.00
816;DHT22;25928;51.062;13.752;2022-08-24T04:13:51;20.30;1.00
816;DHT22;25928;51.062;13.752;2022-08-24T04:16:19;20.30;1.00
816;DHT22;25928;51.062;13.752;2022-08-24T04:18:45;20.40;1.00
816;DHT22;25928;51.062;13.752;2022-08-24T04:21:20;20.40;1.00
816;DHT22;25928;51.062;13.752;2022-08-24T04:23:47;20.50;1.00
816;DHT22;25928;51.062;13.752;2022-08-24T04:26:14;20.60;1.00
816;DHT22;25928;51.062;13.752;2022-08-24T04:28:39;20.50;1.00
816;DHT22;25928;51.062;13.752;2022-08-24T04:31:05;20.50;1.00
816;DHT22;25928;51.062;13.752;2022-08-24T04:33:31;20.60;1.00
816;DHT22;25928;51.062;13.752;2022-08-24T04:35:57;20.70;1.00
816;DHT22;25928;51.062;13.752;2022-08-24T04:38:23;20.60;1.00
816;DHT22;25928;51.062;13.752;2022-08-24T04:40:49;20.60;1.00
816;DHT22;25928;51.062;13.752;2022-08-24T04:43:16;20.50;1.00
816;DHT22;25928;51.062;13.752;2022-08-24T04:45:46;20.50;1.00
816;DHT22;25928;51.062;13.752;2022-08-24T04:48:14;20.50;1.00
816;DHT22;25928;51.062;13.752;2022-08-24T04:50:42;20.60;1.00
816;DHT22;25928;51.062;13.752;2022-08-24T04:53:08;20.50;1.00
816;DHT22;25928;51.062;13.752;2022-08-24T04:55:43;20.60;1.00
816;DHT22;25928;51.062;13.752;2022-08-24T04:58:11;20.60;1.00
816;DHT22;25928;51.062;13.752;2022-08-24T05:00:36;20.60;1.00
816;DHT22;25928;51.062;13.752;2022-08-24T05:03:02;20.70;1.00
816;DHT22;25928;51.062;13.752;2022-08-24T05:05:28;20.70;1.00
816;DHT22;25928;51.062;13.752;2022-08-24T05:07:54;20.70;1.00
816;DHT22;25928;51.062;13.752;2022-08-24T05:10:19;20.70;1.00
816;DHT22;25928;51.062;13.752;2022-08-24T05:12:46;20.70;1.00
816;DHT22;25928;51.062;13.752;2022-08-24T05:15:12;20.80;1.00
816;DHT22;25928;51.062;13.752;2022-08-24T05:17:38;20.90;1.00
816;DHT22;25928;51.062;13.752;2022-08-24T05:20:06;20.90;1.00
816;DHT22;25928;51.062;13.752;2022-08-24T05:22:33;21.10;1.00
816;DHT22;25928;51.062;13.752;2022-08-24T05:24:59;21.30;1.00
816;DHT22;25928;51.062;13.752;2022-08-24T05:27:25;21.30;1.00
816;DHT22;25928;51.062;13.752;2022-08-24T05:29:54;21.50;1.00
816;DHT22;25928;51.062;13.752;2022-08-24T05:32:20;21.50;1.00
816;DHT22;25928;51.062;13.752;2022-08-24T05:34:46;21.50;1.00
816;DHT22;25928;51.062;13.752;2022-08-24T05:37:18;21.50;1.00
816;DHT22;25928;51.062;13.752;2022-08-24T05:39:52;21.50;1.00
816;DHT22;25928;51.062;13.752;2022-08-24T05:42:18;21.40;1.00
816;DHT22;25928;51.062;13.752;2022-08-24T05:44:44;21.50;1.00
816;DHT22;25928;51.062;13.752;2022-08-24T05:47:09;21.50;1.00
816;DHT22;25928;51.062;13.752;2022-08-24T05:49:35;21.60;1.00
816;DHT22;25928;51.062;13.752;2022-08-24T05:52:01;21.60;1.00
816;DHT22;25928;51.062;13.752;2022-08-24T05:54:27;21.60;1.00
816;DHT22;25928;51.062;13.752;2022-08-24T05:56:53;21.70;1.00
816;DHT22;25928;51.062;13.752;2022-08-24T05:59:19;21.70;1.00
816;DHT22;25928;51.062;13.752;2022-08-24T06:01:47;21.70;1.00
816;DHT22;25928;51.062;13.752;2022-08-24T06:04:13;21.80;1.00
816;DHT22;25928;51.062;13.752;2022-08-24T06:06:38;21.80;1.00
816;DHT22;25928;51.062;13.752;2022-08-24T06:09:04;21.90;1.00
816;DHT22;25928;51.062;13.752;2022-08-24T06:11:34;21.70;1.00
816;DHT22;25928;51.062;13.752;2022-08-24T06:14:06;21.80;1.00
816;DHT22;25928;51.062;13.752;2022-08-24T06:16:37;21.80;1.00
816;DHT22;25928;51.062;13.752;2022-08-24T06:19:04;21.70;1.00
816;DHT22;25928;51.062;13.752;2022-08-24T06:21:30;21.70;1.00
816;DHT22;25928;51.062;13.752;2022-08-24T06:23:57;21.60;1.00
816;DHT22;25928;51.062;13.752;2022-08-24T06:26:23;21.70;1.00
816;DHT22;25928;51.062;13.752;2022-08-24T06:29:08;21.50;1.00
816;DHT22;25928;51.062;13.752;2022-08-24T06:31:39;21.70;1.00
816;DHT22;25928;51.062;13.752;2022-08-24T06:34:06;21.80;1.00
816;DHT22;25928;51.062;13.752;2022-08-24T06:36:31;21.90;1.00
816;DHT22;25928;51.062;13.752;2022-08-24T06:38:58;22.00;1.00
816;DHT22;25928;51.062;13.752;2022-08-24T06:41:24;22.20;1.00
816;DHT22;25928;51.062;13.752;2022-08-24T06:43:50;22.30;1.00
816;DHT22;25928;51.062;13.752;2022-08-24T06:46:16;22.50;1.00
816;DHT22;25928;51.062;13.752;2022-08-24T06:48:42;22.60;1.00
816;DHT22;25928;51.062;13.752;2022-08-24T06:51:18;22.70;1.00
816;DHT22;25928;51.062;13.752;2022-08-24T06:53:44;22.50;1.00
816;DHT22;25928;51.062;13.752;2022-08-24T06:56:11;22.40;1.00
816;DHT22;25928;51.062;13.752;2022-08-24T06:58:37;22.30;1.00
816;DHT22;25928;51.062;13.752;2022-08-24T07:01:18;22.40;1.00
816;DHT22;25928;51.062;13.752;2022-08-24T07:03:44;22.30;1.00
816;DHT22;25928;51.062;13.752;2022-08-24T07:06:10;22.40;1.00
816;DHT22;25928;51.062;13.752;2022-08-24T07:08:37;22.50;1.00
816;DHT22;25928;51.062;13.752;2022-08-24T07:11:06;22.70;1.00
816;DHT22;25928;51.062;13.752;2022-08-24T07:13:32;23.00;1.00
816;DHT22;25928;51.062;13.752;2022-08-24T07:15:59;23.10;1.00
816;DHT22;25928;51.062;13.752;2022-08-24T07:18:25;23.50;1.00
816;DHT22;25928;51.062;13.752;2022-08-24T07:20:51;23.50;1.00
816;DHT22;25928;51.062;13.752;2022-08-24T07:23:17;23.80;1.00
816;DHT22;25928;51.062;13.752;2022-08-24T07:25:45;24.10;1.00
816;DHT22;25928;51.062;13.752;2022-08-24T07:28:11;24.20;1.00
816;DHT22;25928;51.062;13.752;2022-08-24T07:30:38;24.40;1.00
816;DHT22;25928;51.062;13.752;2022-08-24T07:33:04;24.50;1.00
816;DHT22;25928;51.062;13.752;2022-08-24T07:35:30;24.50;1.00
816;DHT22;25928;51.062;13.752;2022-08-24T07:37:59;24.50;1.00
816;DHT22;25928;51.062;13.752;2022-08-24T07:40:27;24.60;1.00
816;DHT22;25928;51.062;13.752;2022-08-24T07:42:54;24.80;1.00
816;DHT22;25928;51.062;13.752;2022-08-24T07:45:20;24.80;1.00
816;DHT22;25928;51.062;13.752;2022-08-24T07:47:47;24.50;1.00
816;DHT22;25928;51.062;13.752;2022-08-24T07:50:14;24.80;1.00
816;DHT22;25928;51.062;13.752;2022-08-24T07:52:41;24.80;1.00
816;DHT22;25928;51.062;13.752;2022-08-24T07:55:08;24.80;1.00
816;DHT22;25928;51.062;13.752;2022-08-24T07:57:34;24.60;1.00
816;DHT22;25928;51.062;13.752;2022-08-24T08:00:05;24.50;1.00
816;DHT22;25928;51.062;13.752;2022-08-24T08:04:58;24.40;1.00
816;DHT22;25928;51.062;13.752;2022-08-24T08:07:24;24.50;1.00
816;DHT22;25928;51.062;13.752;2022-08-24T08:09:50;24.60;1.00
816;DHT22;25928;51.062;13.752;2022-08-24T08:12:17;24.70;1.00
816;DHT22;25928;51.062;13.752;2022-08-24T08:14:44;24.80;1.00
816;DHT22;25928;51.062;13.752;2022-08-24T08:17:10;24.70;1.00
816;DHT22;25928;51.062;13.752;2022-08-24T08:19:37;24.70;1.00
816;DHT22;25928;51.062;13.752;2022-08-24T08:22:03;25.00;1.00
816;DHT22;25928;51.062;13.752;2022-08-24T08:24:47;25.10;1.00
816;DHT22;25928;51.062;13.752;2022-08-24T08:27:14;25.20;1.00
816;DHT22;25928;51.062;13.752;2022-08-24T08:29:41;25.40;1.00
816;DHT22;25928;51.062;13.752;2022-08-24T08:32:10;25.60;1.00
816;DHT22;25928;51.062;13.752;2022-08-24T08:34:39;25.70;1.00
816;DHT22;25928;51.062;13.752;2022-08-24T08:37:05;25.80;1.00
816;DHT22;25928;51.062;13.752;2022-08-24T08:39:31;25.70;1.00
816;DHT22;25928;51.062;13.752;2022-08-24T08:42:06;25.90;1.00
816;DHT22;25928;51.062;13.752;2022-08-24T08:50:18;26.50;1.00
816;DHT22;25928;51.062;13.752;2022-08-24T08:56:15;27.00;1.00
816;DHT22;25928;51.062;13.752;2022-08-24T08:58:56;27.20;1.00
816;DHT22;25928;51.062;13.752;2022-08-24T09:23:57;27.30;1.00
816;DHT22;25928;51.062;13.752;2022-08-24T09:26:30;27.30;1.00
816;DHT22;25928;51.062;13.752;2022-08-24T09:29:08;27.40;1.00
816;DHT22;25928;51.062;13.752;2022-08-24T09:39:57;27.50;1.00
816;DHT22;25928;51.062;13.752;2022-08-24T09:51:15;28.00;1.00
816;DHT22;25928;51.062;13.752;2022-08-24T10:08:16;28.50;1.00
816;DHT22;25928;51.062;13.752;2022-08-24T10:16:26;29.50;1.00
816;DHT22;25928;51.062;13.752;2022-08-24T10:19:11;29.70;1.00
816;DHT22;25928;51.062;13.752;2022-08-24T10:24:27;29.00;1.00
816;DHT22;25928;51.062;13.752;2022-08-24T10:27:03;28.60;1.00
816;DHT22;25928;51.062;13.752;2022-08-24T10:30:06;28.40;1.00
816;DHT22;25928;51.062;13.752;2022-08-24T10:35:13;29.00;1.00
816;DHT22;25928;51.062;13.752;2022-08-24T10:46:51;29.40;1.00
816;DHT22;25928;51.062;13.752;2022-08-24T10:54:23;29.20;1.00
816;DHT22;25928;51.062;13.752;2022-08-24T10:57:01;29.10;1.00
816;DHT22;25928;51.062;13.752;2022-08-24T10:59:53;29.10;1.00
816;DHT22;25928;51.062;13.752;2022-08-24T11:04:59;27.70;1.00
816;DHT22;25928;51.062;13.752;2022-08-24T11:07:26;27.50;1.00
816;DHT22;25928;51.062;13.752;2022-08-24T11:09:58;27.50;1.00
816;DHT22;25928;51.062;13.752;2022-08-24T11:12:27;27.50;1.00
816;DHT22;25928;51.062;13.752;2022-08-24T11:14:56;27.70;1.00
816;DHT22;25928;51.062;13.752;2022-08-24T11:17:28;27.90;1.00
816;DHT22;25928;51.062;13.752;2022-08-24T11:19:55;28.00;1.00
816;DHT22;25928;51.062;13.752;2022-08-24T11:22:36;27.90;1.00
816;DHT22;25928;51.062;13.752;2022-08-24T11:25:24;27.70;1.00
816;DHT22;25928;51.062;13.752;2022-08-24T11:30:42;27.20;1.00
816;DHT22;25928;51.062;13.752;2022-08-24T11:35:52;27.40;1.00
816;DHT22;25928;51.062;13.752;2022-08-24T11:38:21;27.50;1.00
816;DHT22;25928;51.062;13.752;2022-08-24T11:40:54;27.70;1.00
816;DHT22;25928;51.062;13.752;2022-08-24T11:43:52;27.90;1.00
816;DHT22;25928;51.062;13.752;2022-08-24T11:49:10;28.40;1.00
816;DHT22;25928;51.062;13.752;2022-08-24T11:51:49;28.60;1.00
816;DHT22;25928;51.062;13.752;2022-08-24T11:54:37;27.80;1.00
816;DHT22;25928;51.062;13.752;2022-08-24T11:57:15;29.60;1.00
816;DHT22;25928;51.062;13.752;2022-08-24T12:10:43;29.50;1.00
816;DHT22;25928;51.062;13.752;2022-08-24T12:18:57;28.60;1.00
816;DHT22;25928;51.062;13.752;2022-08-24T12:21:27;28.50;1.00
816;DHT22;25928;51.062;13.752;2022-08-24T12:24:02;28.60;1.00
816;DHT22;25928;51.062;13.752;2022-08-24T12:26:50;28.70;1.00
816;DHT22;25928;51.062;13.752;2022-08-24T12:30:02;28.80;1.00
816;DHT22;25928;51.062;13.752;2022-08-24T12:32:13;29.00;1.00
816;DHT22;25928;51.062;13.752;2022-08-24T12:34:47;29.30;1.00
816;DHT22;25928;51.062;13.752;2022-08-24T12:39:56;29.90;1.00
816;DHT22;25928;51.062;13.752;2022-08-24T12:42:27;30.00;1.00
816;DHT22;25928;51.062;13.752;2022-08-24T12:44:59;30.00;1.00
816;DHT22;25928;51.062;13.752;2022-08-24T12:47:34;30.30;1.00
816;DHT22;25928;51.062;13.752;2022-08-24T12:50:14;30.70;1.00
816;DHT22;25928;51.062;13.752;2022-08-24T12:58:31;31.20;1.00
816;DHT22;25928;51.062;13.752;2022-08-24T13:01:07;31.40;1.00
816;DHT22;25928;51.062;13.752;2022-08-24T13:03:38;31.60;1.00
816;DHT22;25928;51.062;13.752;2022-08-24T13:08:43;31.20;1.00
816;DHT22;25928;51.062;13.752;2022-08-24T13:11:35;30.80;1.00
816;DHT22;25928;51.062;13.752;2022-08-24T13:14:05;30.60;1.00
816;DHT22;25928;51.062;13.752;2022-08-24T13:16:49;30.60;1.00
816;DHT22;25928;51.062;13.752;2022-08-24T13:24:44;30.20;1.00
816;DHT22;25928;51.062;13.752;2022-08-24T13:32:35;30.70;1.00
816;DHT22;25928;51.062;13.752;2022-08-24T13:35:29;30.80;1.00
816;DHT22;25928;51.062;13.752;2022-08-24T13:41:09;31.10;1.00
816;DHT22;25928;51.062;13.752;2022-08-24T13:49:23;29.70;1.00
816;DHT22;25928;51.062;13.752;2022-08-24T13:54:52;29.30;1.00
816;DHT22;25928;51.062;13.752;2022-08-24T14:00:29;29.40;1.00
816;DHT22;25928;51.062;13.752;2022-08-24T14:06:03;29.70;1.00
816;DHT22;25928;51.062;13.752;2022-08-24T14:12:23;30.20;1.00
816;DHT22;25928;51.062;13.752;2022-08-24T14:20:51;30.70;1.00
816;DHT22;25928;51.062;13.752;2022-08-24T14:23:50;30.40;1.00
816;DHT22;25928;51.062;13.752;2022-08-24T14:34:41;29.50;1.00
816;DHT22;25928;51.062;13.752;2022-08-24T14:42:17;29.30;1.00
816;DHT22;25928;51.062;13.752;2022-08-24T14:44:50;28.80;1.00
816;DHT22;25928;51.062;13.752;2022-08-24T14:50:51;28.20;1.00
816;DHT22;25928;51.062;13.752;2022-08-24T15:01:48;27.80;1.00
816;DHT22;25928;51.062;13.752;2022-08-24T15:04:37;27.70;1.00
816;DHT22;25928;51.062;13.752;2022-08-24T15:09:48;27.70;1.00
816;DHT22;25928;51.062;13.752;2022-08-24T15:14:57;27.90;1.00
816;DHT22;25928;51.062;13.752;2022-08-24T15:20:18;27.80;1.00
816;DHT22;25928;51.062;13.752;2022-08-24T15:23:04;27.80;1.00
816;DHT22;25928;51.062;13.752;2022-08-24T15:25:42;28.80;1.00
816;DHT22;25928;51.062;13.752;2022-08-24T15:28:12;30.20;1.00
816;DHT22;25928;51.062;13.752;2022-08-24T15:30:39;31.10;1.00
816;DHT22;25928;51.062;13.752;2022-08-24T15:33:12;31.90;1.00
816;DHT22;25928;51.062;13.752;2022-08-24T15:35:41;33.20;1.00
816;DHT22;25928;51.062;13.752;2022-08-24T15:38:43;34.20;1.00
816;DHT22;25928;51.062;13.752;2022-08-24T15:46:11;36.00;1.00
816;DHT22;25928;51.062;13.752;2022-08-24T15:48:39;36.60;1.00
816;DHT22;25928;51.062;13.752;2022-08-24T15:51:06;36.90;1.00
816;DHT22;25928;51.062;13.752;2022-08-24T15:53:50;36.80;1.00
816;DHT22;25928;51.062;13.752;2022-08-24T15:56:28;37.20;1.00
816;DHT22;25928;51.062;13.752;2022-08-24T15:59:06;37.40;1.00
816;DHT22;25928;51.062;13.752;2022-08-24T16:01:32;37.00;1.00
816;DHT22;25928;51.062;13.752;2022-08-24T16:07:05;35.70;1.00
816;DHT22;25928;51.062;13.752;2022-08-24T16:09:34;36.30;1.00
816;DHT22;25928;51.062;13.752;2022-08-24T16:12:19;35.80;1.00
816;DHT22;25928;51.062;13.752;2022-08-24T16:14:52;35.20;1.00
816;DHT22;25928;51.062;13.752;2022-08-24T16:17:32;34.40;1.00
816;DHT22;25928;51.062;13.752;2022-08-24T16:20:05;34.30;1.00
816;DHT22;25928;51.062;13.752;2022-08-24T16:22:35;34.20;1.00
816;DHT22;25928;51.062;13.752;2022-08-24T16:36:14;34.70;1.00
816;DHT22;25928;51.062;13.752;2022-08-24T16:38:45;34.80;1.00
816;DHT22;25928;51.062;13.752;2022-08-24T16:41:11;34.90;1.00
816;DHT22;25928;51.062;13.752;2022-08-24T16:43:39;35.20;1.00
816;DHT22;25928;51.062;13.752;2022-08-24T16:46:07;35.10;1.00
816;DHT22;25928;51.062;13.752;2022-08-24T16:48:34;33.80;1.00
816;DHT22;25928;51.062;13.752;2022-08-24T16:51:00;31.80;1.00
816;DHT22;25928;51.062;13.752;2022-08-24T16:53:25;30.60;1.00
816;DHT22;25928;51.062;13.752;2022-08-24T16:55:52;29.70;1.00
816;DHT22;25928;51.062;13.752;2022-08-24T16:58:18;29.20;1.00
816;DHT22;25928;51.062;13.752;2022-08-24T17:00:44;28.80;1.00
816;DHT22;25928;51.062;13.752;2022-08-24T17:03:11;28.50;1.00
816;DHT22;25928;51.062;13.752;2022-08-24T17:05:37;28.30;1.00
816;DHT22;25928;51.062;13.752;2022-08-24T17:08:03;28.30;1.00
816;DHT22;25928;51.062;13.752;2022-08-24T17:10:28;27.90;1.00
816;DHT22;25928;51.062;13.752;2022-08-24T17:12:56;28.00;1.00
816;DHT22;25928;51.062;13.752;2022-08-24T17:15:22;27.80;1.00
816;DHT22;25928;51.062;13.752;2022-08-24T17:18:03;27.70;1.00
816;DHT22;25928;51.062;13.752;2022-08-24T17:20:30;27.60;1.00
816;DHT22;25928;51.062;13.752;2022-08-24T17:22:56;27.50;1.00
816;DHT22;25928;51.062;13.752;2022-08-24T17:25:24;27.30;1.00
816;DHT22;25928;51.062;13.752;2022-08-24T17:27:51;27.20;1.00
816;DHT22;25928;51.062;13.752;2022-08-24T17:30:18;27.20;1.00
816;DHT22;25928;51.062;13.752;2022-08-24T17:32:47;27.10;1.00
816;DHT22;25928;51.062;13.752;2022-08-24T17:35:13;27.00;1.00
816;DHT22;25928;51.062;13.752;2022-08-24T17:37:40;26.90;1.00
816;DHT22;25928;51.062;13.752;2022-08-24T17:40:10;26.80;1.00
816;DHT22;25928;51.062;13.752;2022-08-24T17:42:36;26.70;1.00
816;DHT22;25928;51.062;13.752;2022-08-24T17:45:02;26.60;1.00
816;DHT22;25928;51.062;13.752;2022-08-24T17:47:28;26.60;1.00
816;DHT22;25928;51.062;13.752;2022-08-24T17:49:53;26.50;1.00
816;DHT22;25928;51.062;13.752;2022-08-24T17:52:19;26.30;1.00
816;DHT22;25928;51.062;13.752;2022-08-24T17:54:45;26.30;1.00
816;DHT22;25928;51.062;13.752;2022-08-24T17:57:14;26.20;1.00
816;DHT22;25928;51.062;13.752;2022-08-24T17:59:39;26.10;1.00
816;DHT22;25928;51.062;13.752;2022-08-24T18:02:08;26.00;1.00
816;DHT22;25928;51.062;13.752;2022-08-24T18:04:35;25.90;1.00
816;DHT22;25928;51.062;13.752;2022-08-24T18:07:10;25.90;1.00
816;DHT22;25928;51.062;13.752;2022-08-24T18:09:48;25.80;1.00
816;DHT22;25928;51.062;13.752;2022-08-24T18:12:16;25.70;1.00
816;DHT22;25928;51.062;13.752;2022-08-24T18:14:42;25.60;1.00
816;DHT22;25928;51.062;13.752;2022-08-24T18:17:10;25.50;1.00
816;DHT22;25928;51.062;13.752;2022-08-24T18:19:37;25.50;1.00
816;DHT22;25928;51.062;13.752;2022-08-24T18:22:05;25.40;1.00
816;DHT22;25928;51.062;13.752;2022-08-24T18:24:31;25.40;1.00
816;DHT22;25928;51.062;13.752;2022-08-24T18:27:09;25.30;1.00
816;DHT22;25928;51.062;13.752;2022-08-24T18:29:35;25.30;1.00
816;DHT22;25928;51.062;13.752;2022-08-24T18:32:02;25.30;1.00
816;DHT22;25928;51.062;13.752;2022-08-24T18:34:29;25.20;1.00
816;DHT22;25928;51.062;13.752;2022-08-24T18:36:55;25.20;1.00
816;DHT22;25928;51.062;13.752;2022-08-24T18:39:21;25.30;1.00
816;DHT22;25928;51.062;13.752;2022-08-24T18:41:48;25.30;1.00
816;DHT22;25928;51.062;13.752;2022-08-24T18:44:16;25.20;1.00
816;DHT22;25928;51.062;13.752;2022-08-24T18:46:42;25.10;1.00
816;DHT22;25928;51.062;13.752;2022-08-24T18:49:08;25.00;1.00
816;DHT22;25928;51.062;13.752;2022-08-24T18:51:34;25.00;1.00
816;DHT22;25928;51.062;13.752;2022-08-24T18:54:06;24.90;1.00
816;DHT22;25928;51.062;13.752;2022-08-24T18:56:32;24.80;1.00
816;DHT22;25928;51.062;13.752;2022-08-24T18:58:58;24.80;1.00
816;DHT22;25928;51.062;13.752;2022-08-24T19:01:24;24.80;1.00
816;DHT22;25928;51.062;13.752;2022-08-24T19:03:51;24.70;1.00
816;DHT22;25928;51.062;13.752;2022-08-24T19:06:17;24.60;1.00
816;DHT22;25928;51.062;13.752;2022-08-24T19:08:43;24.50;1.00
816;DHT22;25928;51.062;13.752;2022-08-24T19:11:09;24.50;1.00
816;DHT22;25928;51.062;13.752;2022-08-24T19:13:35;24.50;1.00
816;DHT22;25928;51.062;13.752;2022-08-24T19:16:06;24.40;1.00
816;DHT22;25928;51.062;13.752;2022-08-24T19:18:31;24.40;1.00
816;DHT22;25928;51.062;13.752;2022-08-24T19:20:57;24.40;1.00
816;DHT22;25928;51.062;13.752;2022-08-24T19:23:29;24.40;1.00
816;DHT22;25928;51.062;13.752;2022-08-24T19:25:57;24.30;1.00
816;DHT22;25928;51.062;13.752;2022-08-24T19:28:25;24.30;1.00
816;DHT22;25928;51.062;13.752;2022-08-24T19:30:55;24.30;1.00
816;DHT22;25928;51.062;13.752;2022-08-24T19:33:28;24.30;1.00
816;DHT22;25928;51.062;13.752;2022-08-24T19:35:57;24.20;1.00
816;DHT22;25928;51.062;13.752;2022-08-24T19:38:23;24.10;1.00
816;DHT22;25928;51.062;13.752;2022-08-24T19:40:49;24.10;1.00
816;DHT22;25928;51.062;13.752;2022-08-24T19:43:15;24.10;1.00
816;DHT22;25928;51.062;13.752;2022-08-24T19:45:40;24.00;1.00
816;DHT22;25928;51.062;13.752;2022-08-24T19:48:25;23.90;1.00
816;DHT22;25928;51.062;13.752;2022-08-24T19:50:52;23.90;1.00
816;DHT22;25928;51.062;13.752;2022-08-24T19:53:18;23.80;1.00
816;DHT22;25928;51.062;13.752;2022-08-24T19:55:44;23.90;1.00
816;DHT22;25928;51.062;13.752;2022-08-24T20:01:11;23.80;1.00
816;DHT22;25928;51.062;13.752;2022-08-24T20:03:35;23.90;1.00
816;DHT22;25928;51.062;13.752;2022-08-24T20:06:01;23.70;1.00